sensor_id;sensor_type;location;lat;lon;timestamp;P1;durP1;ratioP1;P2;durP2;ratioP2
31224;SDS011;17847;31.524;74.366;2023-03-01T00:01:28;67.93;;;35.75;;
31224;SDS011;17847;31.524;74.366;2023-03-01T00:04:11;58.63;;;31.50;;
31224;SDS011;17847;31.524;74.366;2023-03-01T00:07:00;49.67;;;28.50;;
31224;SDS011;17847;31.524;74.366;2023-03-01T00:09:41;49.40;;;27.23;;
31224;SDS011;17847;31.524;74.366;2023-03-01T00:12:32;38.53;;;23.90;;
31224;SDS011;17847;31.524;74.366;2023-03-01T00:15:07;34.53;;;20.35;;
31224;SDS011;17847;31.524;74.366;2023-03-01T00:18:03;27.90;;;17.25;;
31224;SDS011;17847;31.524;74.366;2023-03-01T00:20:52;31.40;;;15.68;;
31224;SDS011;17847;31.524;74.366;2023-03-01T00:23:42;25.10;;;15.40;;
31224;SDS011;17847;31.524;74.366;2023-03-01T00:26:24;20.33;;;12.65;;
31224;SDS011;17847;31.524;74.366;2023-03-01T00:29:14;25.60;;;12.60;;
31224;SDS011;17847;31.524;74.366;2023-03-01T00:31:56;19.95;;;11.85;;
31224;SDS011;17847;31.524;74.366;2023-03-01T00:34:45;17.52;;;10.73;;
31224;SDS011;17847;31.524;74.366;2023-03-01T00:37:35;13.40;;;9.13;;
31224;SDS011;17847;31.524;74.366;2023-03-01T00:40:24;12.63;;;8.60;;
31224;SDS011;17847;31.524;74.366;2023-03-01T00:43:07;13.13;;;8.65;;
31224;SDS011;17847;31.524;74.366;2023-03-01T00:46:00;11.57;;;7.55;;
31224;SDS011;17847;31.524;74.366;2023-03-01T00:48:43;15.80;;;8.70;;
31224;SDS011;17847;31.524;74.366;2023-03-01T00:51:33;12.45;;;8.60;;
31224;SDS011;17847;31.524;74.366;2023-03-01T00:54:15;12.80;;;8.35;;
31224;SDS011;17847;31.524;74.366;2023-03-01T00:57:04;10.32;;;6.80;;
31224;SDS011;17847;31.524;74.366;2023-03-01T00:59:46;11.15;;;7.10;;
31224;SDS011;17847;31.524;74.366;2023-03-01T01:02:36;11.87;;;7.67;;
31224;SDS011;17847;31.524;74.366;2023-03-01T01:05:18;10.77;;;6.78;;
31224;SDS011;17847;31.524;74.366;2023-03-01T01:08:07;10.50;;;7.32;;
31224;SDS011;17847;31.524;74.366;2023-03-01T01:10:49;12.35;;;7.00;;
31224;SDS011;17847;31.524;74.366;2023-03-01T01:13:38;9.40;;;6.63;;
31224;SDS011;17847;31.524;74.366;2023-03-01T01:16:22;10.10;;;6.72;;
31224;SDS011;17847;31.524;74.366;2023-03-01T01:19:19;10.82;;;7.32;;
31224;SDS011;17847;31.524;74.366;2023-03-01T01:22:02;10.13;;;6.75;;
31224;SDS011;17847;31.524;74.366;2023-03-01T01:24:51;16.03;;;8.63;;
31224;SDS011;17847;31.524;74.366;2023-03-01T01:27:33;14.45;;;7.80;;
31224;SDS011;17847;31.524;74.366;2023-03-01T01:30:22;11.30;;;7.77;;
31224;SDS011;17847;31.524;74.366;2023-03-01T01:33:03;12.77;;;7.85;;
31224;SDS011;17847;31.524;74.366;2023-03-01T01:35:52;15.63;;;8.00;;
31224;SDS011;17847;31.524;74.366;2023-03-01T01:38:35;15.90;;;8.25;;
31224;SDS011;17847;31.524;74.366;2023-03-01T01:41:26;11.80;;;7.63;;
31224;SDS011;17847;31.524;74.366;2023-03-01T01:44:14;12.18;;;8.40;;
31224;SDS011;17847;31.524;74.366;2023-03-01T01:47:18;13.75;;;8.02;;
31224;SDS011;17847;31.524;74.366;2023-03-01T01:49:56;12.57;;;7.88;;
31224;SDS011;17847;31.524;74.366;2023-03-01T01:53:01;15.60;;;8.73;;
31224;SDS011;17847;31.524;74.366;2023-03-01T01:55:58;14.30;;;8.70;;
31224;SDS011;17847;31.524;74.366;2023-03-01T01:58:56;14.98;;;8.80;;
31224;SDS011;17847;31.524;74.366;2023-03-01T02:01:32;16.38;;;9.73;;
31224;SDS011;17847;31.524;74.366;2023-03-01T02:04:28;15.98;;;10.45;;
31224;SDS011;17847;31.524;74.366;2023-03-01T02:07:18;15.80;;;10.18;;
31224;SDS011;17847;31.524;74.366;2023-03-01T02:10:16;17.73;;;10.75;;
31224;SDS011;17847;31.524;74.366;2023-03-01T02:12:58;16.88;;;10.85;;
31224;SDS011;17847;31.524;74.366;2023-03-01T02:15:49;19.40;;;11.10;;
31224;SDS011;17847;31.524;74.366;2023-03-01T02:18:31;20.90;;;11.00;;
31224;SDS011;17847;31.524;74.366;2023-03-01T02:27:17;20.58;;;11.20;;
31224;SDS011;17847;31.524;74.366;2023-03-01T02:30:03;19.73;;;11.45;;
31224;SDS011;17847;31.524;74.366;2023-03-01T02:32:54;18.73;;;11.43;;
31224;SDS011;17847;31.524;74.366;2023-03-01T02:35:38;23.23;;;12.02;;
31224;SDS011;17847;31.524;74.366;2023-03-01T02:38:28;17.02;;;12.05;;
31224;SDS011;17847;31.524;74.366;2023-03-01T02:41:12;22.33;;;11.90;;
31224;SDS011;17847;31.524;74.366;2023-03-01T02:44:05;19.15;;;12.13;;
31224;SDS011;17847;31.524;74.366;2023-03-01T02:46:48;18.13;;;11.57;;
31224;SDS011;17847;31.524;74.366;2023-03-01T02:49:42;16.33;;;11.45;;
31224;SDS011;17847;31.524;74.366;2023-03-01T02:55:29;18.05;;;11.52;;
31224;SDS011;17847;31.524;74.366;2023-03-01T02:58:25;17.10;;;11.27;;
31224;SDS011;17847;31.524;74.366;2023-03-01T03:01:07;18.77;;;12.05;;
31224;SDS011;17847;31.524;74.366;2023-03-01T03:03:59;18.27;;;11.95;;
31224;SDS011;17847;31.524;74.366;2023-03-01T03:06:44;17.03;;;11.77;;
31224;SDS011;17847;31.524;74.366;2023-03-01T03:12:15;19.98;;;12.80;;
31224;SDS011;17847;31.524;74.366;2023-03-01T03:15:05;21.30;;;14.00;;
31224;SDS011;17847;31.524;74.366;2023-03-01T03:17:50;19.48;;;13.32;;
31224;SDS011;17847;31.524;74.366;2023-03-01T03:20:40;20.08;;;12.57;;
31224;SDS011;17847;31.524;74.366;2023-03-01T03:23:24;15.25;;;11.23;;
31224;SDS011;17847;31.524;74.366;2023-03-01T03:26:13;23.27;;;11.40;;
31224;SDS011;17847;31.524;74.366;2023-03-01T03:28:56;17.17;;;10.90;;
31224;SDS011;17847;31.524;74.366;2023-03-01T03:31:45;18.55;;;10.15;;
31224;SDS011;17847;31.524;74.366;2023-03-01T03:34:27;16.63;;;9.27;;
31224;SDS011;17847;31.524;74.366;2023-03-01T03:37:16;15.18;;;9.95;;
31224;SDS011;17847;31.524;74.366;2023-03-01T03:40:16;17.73;;;10.77;;
31224;SDS011;17847;31.524;74.366;2023-03-01T03:43:06;16.58;;;11.77;;
31224;SDS011;17847;31.524;74.366;2023-03-01T03:45:50;18.40;;;9.80;;
31224;SDS011;17847;31.524;74.366;2023-03-01T03:48:42;16.63;;;10.63;;
31224;SDS011;17847;31.524;74.366;2023-03-01T03:51:26;12.10;;;8.13;;
31224;SDS011;17847;31.524;74.366;2023-03-01T03:54:14;14.32;;;8.88;;
31224;SDS011;17847;31.524;74.366;2023-03-01T03:57:05;21.38;;;9.57;;
31224;SDS011;17847;31.524;74.366;2023-03-01T04:00:00;17.70;;;9.75;;
31224;SDS011;17847;31.524;74.366;2023-03-01T04:02:42;19.05;;;10.80;;
31224;SDS011;17847;31.524;74.366;2023-03-01T04:05:31;13.45;;;9.30;;
31224;SDS011;17847;31.524;74.366;2023-03-01T04:08:13;15.93;;;9.57;;
31224;SDS011;17847;31.524;74.366;2023-03-01T04:11:02;18.27;;;9.82;;
31224;SDS011;17847;31.524;74.366;2023-03-01T04:14:05;20.95;;;9.63;;
31224;SDS011;17847;31.524;74.366;2023-03-01T04:16:53;18.20;;;9.65;;
31224;SDS011;17847;31.524;74.366;2023-03-01T04:19:36;13.43;;;8.48;;
31224;SDS011;17847;31.524;74.366;2023-03-01T04:22:25;18.25;;;9.40;;
31224;SDS011;17847;31.524;74.366;2023-03-01T04:25:10;18.83;;;10.77;;
31224;SDS011;17847;31.524;74.366;2023-03-01T04:27:58;12.60;;;9.13;;
31224;SDS011;17847;31.524;74.366;2023-03-01T04:30:41;18.58;;;8.85;;
31224;SDS011;17847;31.524;74.366;2023-03-01T04:33:29;15.75;;;9.85;;
31224;SDS011;17847;31.524;74.366;2023-03-01T04:36:13;16.38;;;8.77;;
31224;SDS011;17847;31.524;74.366;2023-03-01T04:39:03;13.18;;;7.60;;
31224;SDS011;17847;31.524;74.366;2023-03-01T04:41:53;17.83;;;8.60;;
31224;SDS011;17847;31.524;74.366;2023-03-01T04:44:42;11.57;;;7.10;;
31224;SDS011;17847;31.524;74.366;2023-03-01T04:47:25;14.73;;;7.57;;
31224;SDS011;17847;31.524;74.366;2023-03-01T04:50:15;13.13;;;8.35;;
31224;SDS011;17847;31.524;74.366;2023-03-01T04:55:50;11.93;;;8.02;;
31224;SDS011;17847;31.524;74.366;2023-03-01T04:58:32;14.40;;;7.05;;
31224;SDS011;17847;31.524;74.366;2023-03-01T05:01:21;8.15;;;6.22;;
31224;SDS011;17847;31.524;74.366;2023-03-01T05:04:03;9.95;;;6.75;;
31224;SDS011;17847;31.524;74.366;2023-03-01T05:06:53;11.45;;;7.47;;
31224;SDS011;17847;31.524;74.366;2023-03-01T05:09:37;11.55;;;5.70;;
31224;SDS011;17847;31.524;74.366;2023-03-01T05:12:26;16.30;;;6.38;;
31224;SDS011;17847;31.524;74.366;2023-03-01T05:15:09;11.85;;;5.40;;
31224;SDS011;17847;31.524;74.366;2023-03-01T05:17:58;8.93;;;5.55;;
31224;SDS011;17847;31.524;74.366;2023-03-01T05:20:41;9.43;;;4.88;;
31224;SDS011;17847;31.524;74.366;2023-03-01T05:23:30;10.73;;;5.97;;
31224;SDS011;17847;31.524;74.366;2023-03-01T05:26:13;11.90;;;5.30;;
31224;SDS011;17847;31.524;74.366;2023-03-01T05:29:09;11.02;;;6.18;;
31224;SDS011;17847;31.524;74.366;2023-03-01T05:34:42;8.90;;;6.30;;
31224;SDS011;17847;31.524;74.366;2023-03-01T05:37:25;18.92;;;7.70;;
31224;SDS011;17847;31.524;74.366;2023-03-01T05:40:18;13.40;;;6.20;;
31224;SDS011;17847;31.524;74.366;2023-03-01T05:43:01;18.73;;;6.40;;
31224;SDS011;17847;31.524;74.366;2023-03-01T05:45:49;29.05;;;7.03;;
31224;SDS011;17847;31.524;74.366;2023-03-01T05:48:32;11.35;;;4.80;;
31224;SDS011;17847;31.524;74.366;2023-03-01T05:51:20;13.45;;;5.18;;
31224;SDS011;17847;31.524;74.366;2023-03-01T05:54:03;7.68;;;5.35;;
31224;SDS011;17847;31.524;74.366;2023-03-01T05:56:52;10.07;;;6.05;;
31224;SDS011;17847;31.524;74.366;2023-03-01T05:59:34;15.52;;;5.10;;
31224;SDS011;17847;31.524;74.366;2023-03-01T06:02:30;17.15;;;5.03;;
31224;SDS011;17847;31.524;74.366;2023-03-01T06:05:14;13.80;;;5.82;;
31224;SDS011;17847;31.524;74.366;2023-03-01T06:08:03;35.60;;;8.73;;
31224;SDS011;17847;31.524;74.366;2023-03-01T06:10:38;18.13;;;5.60;;
31224;SDS011;17847;31.524;74.366;2023-03-01T06:13:35;17.65;;;5.72;;
31224;SDS011;17847;31.524;74.366;2023-03-01T06:16:17;19.02;;;6.35;;
31224;SDS011;17847;31.524;74.366;2023-03-01T06:19:07;18.52;;;6.20;;
31224;SDS011;17847;31.524;74.366;2023-03-01T06:21:48;15.68;;;8.30;;
31224;SDS011;17847;31.524;74.366;2023-03-01T06:24:36;17.13;;;7.95;;
31224;SDS011;17847;31.524;74.366;2023-03-01T06:27:12;20.85;;;8.30;;
31224;SDS011;17847;31.524;74.366;2023-03-01T06:30:08;17.88;;;9.40;;
31224;SDS011;17847;31.524;74.366;2023-03-01T06:32:55;24.67;;;13.80;;
31224;SDS011;17847;31.524;74.366;2023-03-01T06:35:47;25.90;;;14.23;;
31224;SDS011;17847;31.524;74.366;2023-03-01T06:38:30;29.45;;;16.77;;
31224;SDS011;17847;31.524;74.366;2023-03-01T06:41:19;42.50;;;22.88;;
31224;SDS011;17847;31.524;74.366;2023-03-01T06:44:01;33.20;;;17.88;;
31224;SDS011;17847;31.524;74.366;2023-03-01T06:46:50;35.80;;;16.95;;
31224;SDS011;17847;31.524;74.366;2023-03-01T06:49:32;30.17;;;16.75;;
31224;SDS011;17847;31.524;74.366;2023-03-01T06:52:21;36.97;;;21.75;;
31224;SDS011;17847;31.524;74.366;2023-03-01T06:55:03;39.53;;;19.75;;
31224;SDS011;17847;31.524;74.366;2023-03-01T06:58:00;40.78;;;23.00;;
31224;SDS011;17847;31.524;74.366;2023-03-01T07:00:43;41.75;;;21.98;;
31224;SDS011;17847;31.524;74.366;2023-03-01T07:03:32;35.30;;;21.40;;
31224;SDS011;17847;31.524;74.366;2023-03-01T07:06:07;36.08;;;19.60;;
31224;SDS011;17847;31.524;74.366;2023-03-01T07:09:03;40.13;;;20.98;;
31224;SDS011;17847;31.524;74.366;2023-03-01T07:11:45;33.97;;;20.83;;
31224;SDS011;17847;31.524;74.366;2023-03-01T07:14:33;33.83;;;20.45;;
31224;SDS011;17847;31.524;74.366;2023-03-01T07:17:16;31.65;;;20.17;;
31224;SDS011;17847;31.524;74.366;2023-03-01T07:20:05;33.75;;;19.48;;
31224;SDS011;17847;31.524;74.366;2023-03-01T07:22:47;36.28;;;20.55;;
31224;SDS011;17847;31.524;74.366;2023-03-01T07:25:36;32.10;;;18.42;;
31224;SDS011;17847;31.524;74.366;2023-03-01T07:28:18;31.75;;;16.38;;
31224;SDS011;17847;31.524;74.366;2023-03-01T07:31:07;25.52;;;15.80;;
31224;SDS011;17847;31.524;74.366;2023-03-01T07:33:49;21.42;;;13.25;;
31224;SDS011;17847;31.524;74.366;2023-03-01T07:36:38;26.98;;;15.50;;
31224;SDS011;17847;31.524;74.366;2023-03-01T07:39:20;23.90;;;13.27;;
31224;SDS011;17847;31.524;74.366;2023-03-01T07:42:09;20.65;;;13.35;;
31224;SDS011;17847;31.524;74.366;2023-03-01T07:44:51;26.70;;;14.20;;
31224;SDS011;17847;31.524;74.366;2023-03-01T07:47:39;24.30;;;13.45;;
31224;SDS011;17847;31.524;74.366;2023-03-01T07:50:22;27.85;;;12.35;;
31224;SDS011;17847;31.524;74.366;2023-03-01T07:53:10;22.52;;;13.13;;
31224;SDS011;17847;31.524;74.366;2023-03-01T07:56:00;18.65;;;12.27;;
31224;SDS011;17847;31.524;74.366;2023-03-01T07:58:43;18.90;;;11.10;;
31224;SDS011;17847;31.524;74.366;2023-03-01T08:01:32;17.17;;;10.98;;
31224;SDS011;17847;31.524;74.366;2023-03-01T08:04:15;19.10;;;11.07;;
31224;SDS011;17847;31.524;74.366;2023-03-01T08:07:05;21.73;;;11.00;;
31224;SDS011;17847;31.524;74.366;2023-03-01T08:09:48;19.52;;;10.65;;
31224;SDS011;17847;31.524;74.366;2023-03-01T08:12:36;22.40;;;11.60;;
31224;SDS011;17847;31.524;74.366;2023-03-01T08:15:19;18.90;;;11.52;;
31224;SDS011;17847;31.524;74.366;2023-03-01T08:18:07;17.90;;;10.52;;
31224;SDS011;17847;31.524;74.366;2023-03-01T08:20:50;21.52;;;10.80;;
31224;SDS011;17847;31.524;74.366;2023-03-01T08:23:39;19.38;;;10.88;;
31224;SDS011;17847;31.524;74.366;2023-03-01T08:26:22;20.13;;;10.23;;
31224;SDS011;17847;31.524;74.366;2023-03-01T08:29:12;21.02;;;10.82;;
31224;SDS011;17847;31.524;74.366;2023-03-01T08:31:54;15.82;;;10.52;;
31224;SDS011;17847;31.524;74.366;2023-03-01T08:34:45;17.48;;;10.90;;
31224;SDS011;17847;31.524;74.366;2023-03-01T08:37:28;20.13;;;10.40;;
31224;SDS011;17847;31.524;74.366;2023-03-01T08:40:17;22.40;;;11.60;;
31224;SDS011;17847;31.524;74.366;2023-03-01T08:42:59;17.45;;;11.45;;
31224;SDS011;17847;31.524;74.366;2023-03-01T08:45:54;15.85;;;10.38;;
31224;SDS011;17847;31.524;74.366;2023-03-01T08:48:30;17.65;;;10.68;;
31224;SDS011;17847;31.524;74.366;2023-03-01T08:51:26;25.50;;;10.38;;
31224;SDS011;17847;31.524;74.366;2023-03-01T08:54:12;19.20;;;10.82;;
31224;SDS011;17847;31.524;74.366;2023-03-01T08:57:03;19.58;;;11.80;;
31224;SDS011;17847;31.524;74.366;2023-03-01T08:59:44;18.02;;;10.73;;
31224;SDS011;17847;31.524;74.366;2023-03-01T09:02:34;17.00;;;10.63;;
31224;SDS011;17847;31.524;74.366;2023-03-01T09:05:16;16.70;;;9.27;;
31224;SDS011;17847;31.524;74.366;2023-03-01T09:08:05;17.30;;;9.55;;
31224;SDS011;17847;31.524;74.366;2023-03-01T09:10:47;15.32;;;9.60;;
31224;SDS011;17847;31.524;74.366;2023-03-01T09:13:35;17.77;;;10.00;;
31224;SDS011;17847;31.524;74.366;2023-03-01T09:16:19;15.73;;;9.13;;
31224;SDS011;17847;31.524;74.366;2023-03-01T09:19:10;11.43;;;8.88;;
31224;SDS011;17847;31.524;74.366;2023-03-01T09:21:52;17.13;;;9.43;;
31224;SDS011;17847;31.524;74.366;2023-03-01T09:24:40;20.75;;;9.07;;
31224;SDS011;17847;31.524;74.366;2023-03-01T09:27:22;18.83;;;9.85;;
31224;SDS011;17847;31.524;74.366;2023-03-01T09:30:13;15.30;;;9.52;;
31224;SDS011;17847;31.524;74.366;2023-03-01T09:32:49;13.65;;;9.00;;
31224;SDS011;17847;31.524;74.366;2023-03-01T09:35:44;15.45;;;9.68;;
31224;SDS011;17847;31.524;74.366;2023-03-01T09:38:26;17.15;;;9.25;;
31224;SDS011;17847;31.524;74.366;2023-03-01T09:47:35;17.40;;;8.77;;
31224;SDS011;17847;31.524;74.366;2023-03-01T09:50:12;13.65;;;8.75;;
31224;SDS011;17847;31.524;74.366;2023-03-01T09:53:16;11.75;;;8.05;;
31224;SDS011;17847;31.524;74.366;2023-03-01T09:56:13;15.98;;;7.40;;
31224;SDS011;17847;31.524;74.366;2023-03-01T10:05:46;14.65;;;7.60;;
31224;SDS011;17847;31.524;74.366;2023-03-01T10:11:22;14.15;;;7.32;;
31224;SDS011;17847;31.524;74.366;2023-03-01T10:17:24;13.50;;;6.20;;
31224;SDS011;17847;31.524;74.366;2023-03-01T10:20:18;12.93;;;6.93;;
31224;SDS011;17847;31.524;74.366;2023-03-01T10:23:12;10.88;;;6.35;;
31224;SDS011;17847;31.524;74.366;2023-03-01T10:29:02;12.68;;;7.03;;
31224;SDS011;17847;31.524;74.366;2023-03-01T10:31:46;15.60;;;7.47;;
31224;SDS011;17847;31.524;74.366;2023-03-01T10:34:38;13.77;;;7.50;;
31224;SDS011;17847;31.524;74.366;2023-03-01T10:37:21;13.60;;;6.95;;
31224;SDS011;17847;31.524;74.366;2023-03-01T10:40:12;13.02;;;7.32;;
31224;SDS011;17847;31.524;74.366;2023-03-01T10:42:53;17.35;;;7.65;;
31224;SDS011;17847;31.524;74.366;2023-03-01T10:45:48;14.68;;;7.32;;
31224;SDS011;17847;31.524;74.366;2023-03-01T10:48:30;16.10;;;8.07;;
31224;SDS011;17847;31.524;74.366;2023-03-01T10:51:18;18.52;;;8.23;;
31224;SDS011;17847;31.524;74.366;2023-03-01T10:54:01;14.02;;;7.90;;
31224;SDS011;17847;31.524;74.366;2023-03-01T10:56:53;11.93;;;7.55;;
31224;SDS011;17847;31.524;74.366;2023-03-01T11:00:00;17.85;;;7.43;;
31224;SDS011;17847;31.524;74.366;2023-03-01T11:05:57;14.50;;;8.40;;
31224;SDS011;17847;31.524;74.366;2023-03-01T11:08:43;12.20;;;6.70;;
31224;SDS011;17847;31.524;74.366;2023-03-01T11:11:35;15.55;;;6.88;;
31224;SDS011;17847;31.524;74.366;2023-03-01T11:14:20;16.25;;;7.32;;
31224;SDS011;17847;31.524;74.366;2023-03-01T11:17:20;11.02;;;6.97;;
31224;SDS011;17847;31.524;74.366;2023-03-01T11:20:35;14.45;;;7.45;;
31224;SDS011;17847;31.524;74.366;2023-03-01T11:23:25;16.90;;;6.90;;
31224;SDS011;17847;31.524;74.366;2023-03-01T11:26:10;11.70;;;6.63;;
31224;SDS011;17847;31.524;74.366;2023-03-01T11:29:03;15.32;;;8.00;;
31224;SDS011;17847;31.524;74.366;2023-03-01T11:31:55;15.18;;;8.20;;
31224;SDS011;17847;31.524;74.366;2023-03-01T11:34:51;18.70;;;7.70;;
31224;SDS011;17847;31.524;74.366;2023-03-01T11:37:55;15.77;;;7.63;;
31224;SDS011;17847;31.524;74.366;2023-03-01T11:40:47;15.27;;;9.13;;
31224;SDS011;17847;31.524;74.366;2023-03-01T11:43:48;21.17;;;10.90;;
31224;SDS011;17847;31.524;74.366;2023-03-01T11:46:51;16.27;;;8.60;;
31224;SDS011;17847;31.524;74.366;2023-03-01T12:04:59;22.60;;;10.45;;
31224;SDS011;17847;31.524;74.366;2023-03-01T12:08:01;24.25;;;10.02;;
31224;SDS011;17847;31.524;74.366;2023-03-01T12:11:25;22.20;;;11.65;;
31224;SDS011;17847;31.524;74.366;2023-03-01T12:29:20;23.63;;;12.07;;
31224;SDS011;17847;31.524;74.366;2023-03-01T12:51:11;26.77;;;11.90;;
31224;SDS011;17847;31.524;74.366;2023-03-01T12:54:11;24.88;;;11.88;;
31224;SDS011;17847;31.524;74.366;2023-03-01T12:57:17;24.92;;;12.10;;
31224;SDS011;17847;31.524;74.366;2023-03-01T13:01:00;25.95;;;10.77;;
31224;SDS011;17847;31.524;74.366;2023-03-01T13:13:22;24.05;;;12.77;;
31224;SDS011;17847;31.524;74.366;2023-03-01T13:16:39;23.98;;;11.73;;
31224;SDS011;17847;31.524;74.366;2023-03-01T13:19:24;25.10;;;12.63;;
31224;SDS011;17847;31.524;74.366;2023-03-01T13:22:28;25.08;;;12.98;;
31224;SDS011;17847;31.524;74.366;2023-03-01T13:25:33;28.23;;;12.48;;
31224;SDS011;17847;31.524;74.366;2023-03-01T13:34:39;41.60;;;14.23;;
31224;SDS011;17847;31.524;74.366;2023-03-01T13:37:36;30.08;;;13.90;;
31224;SDS011;17847;31.524;74.366;2023-03-01T13:43:29;29.90;;;14.85;;
31224;SDS011;17847;31.524;74.366;2023-03-01T13:46:20;33.30;;;14.00;;
31224;SDS011;17847;31.524;74.366;2023-03-01T13:49:15;33.15;;;14.38;;
31224;SDS011;17847;31.524;74.366;2023-03-01T13:55:18;41.70;;;15.75;;
31224;SDS011;17847;31.524;74.366;2023-03-01T14:01:23;32.75;;;15.23;;
31224;SDS011;17847;31.524;74.366;2023-03-01T14:04:21;28.48;;;13.57;;
31224;SDS011;17847;31.524;74.366;2023-03-01T14:10:05;30.00;;;14.73;;
31224;SDS011;17847;31.524;74.366;2023-03-01T14:16:09;37.95;;;17.35;;
31224;SDS011;17847;31.524;74.366;2023-03-01T14:22:39;30.15;;;14.77;;
31224;SDS011;17847;31.524;74.366;2023-03-01T14:25:36;27.05;;;13.35;;
31224;SDS011;17847;31.524;74.366;2023-03-01T14:31:46;34.88;;;16.85;;
31224;SDS011;17847;31.524;74.366;2023-03-01T14:34:30;35.38;;;15.82;;
31224;SDS011;17847;31.524;74.366;2023-03-01T14:37:22;39.38;;;18.30;;
31224;SDS011;17847;31.524;74.366;2023-03-01T14:40:23;40.63;;;19.55;;
31224;SDS011;17847;31.524;74.366;2023-03-01T14:43:21;39.03;;;19.00;;
31224;SDS011;17847;31.524;74.366;2023-03-01T14:46:04;37.58;;;20.40;;
31224;SDS011;17847;31.524;74.366;2023-03-01T14:49:04;44.60;;;21.92;;
31224;SDS011;17847;31.524;74.366;2023-03-01T14:51:53;29.33;;;19.02;;
31224;SDS011;17847;31.524;74.366;2023-03-01T14:54:48;30.25;;;17.60;;
31224;SDS011;17847;31.524;74.366;2023-03-01T14:57:42;39.53;;;18.73;;
31224;SDS011;17847;31.524;74.366;2023-03-01T15:00:29;36.80;;;19.23;;
31224;SDS011;17847;31.524;74.366;2023-03-01T15:06:22;30.20;;;18.13;;
31224;SDS011;17847;31.524;74.366;2023-03-01T15:09:14;43.22;;;19.08;;
31224;SDS011;17847;31.524;74.366;2023-03-01T15:11:58;33.27;;;18.53;;
31224;SDS011;17847;31.524;74.366;2023-03-01T15:14:47;52.45;;;19.30;;
31224;SDS011;17847;31.524;74.366;2023-03-01T15:17:37;30.55;;;16.52;;
31224;SDS011;17847;31.524;74.366;2023-03-01T15:20:27;39.23;;;19.03;;
31224;SDS011;17847;31.524;74.366;2023-03-01T15:23:47;40.15;;;18.67;;
31224;SDS011;17847;31.524;74.366;2023-03-01T15:26:31;43.88;;;18.73;;
31224;SDS011;17847;31.524;74.366;2023-03-01T15:29:18;31.10;;;18.73;;
31224;SDS011;17847;31.524;74.366;2023-03-01T15:32:27;40.22;;;19.25;;
31224;SDS011;17847;31.524;74.366;2023-03-01T15:38:36;37.22;;;19.52;;
31224;SDS011;17847;31.524;74.366;2023-03-01T15:41:46;36.20;;;18.73;;
31224;SDS011;17847;31.524;74.366;2023-03-01T15:44:38;41.40;;;18.88;;
31224;SDS011;17847;31.524;74.366;2023-03-01T15:47:28;38.10;;;16.95;;
31224;SDS011;17847;31.524;74.366;2023-03-01T15:50:22;39.88;;;15.30;;
31224;SDS011;17847;31.524;74.366;2023-03-01T15:53:11;35.63;;;15.60;;
31224;SDS011;17847;31.524;74.366;2023-03-01T15:56:02;36.13;;;14.63;;
31224;SDS011;17847;31.524;74.366;2023-03-01T15:58:57;32.85;;;15.05;;
31224;SDS011;17847;31.524;74.366;2023-03-01T16:01:44;36.00;;;14.20;;
31224;SDS011;17847;31.524;74.366;2023-03-01T16:04:34;37.40;;;13.57;;
31224;SDS011;17847;31.524;74.366;2023-03-01T16:07:16;36.97;;;15.25;;
31224;SDS011;17847;31.524;74.366;2023-03-01T16:10:05;38.50;;;15.73;;
31224;SDS011;17847;31.524;74.366;2023-03-01T16:12:49;38.38;;;16.27;;
31224;SDS011;17847;31.524;74.366;2023-03-01T16:15:40;47.03;;;17.05;;
31224;SDS011;17847;31.524;74.366;2023-03-01T16:18:22;34.03;;;16.90;;
31224;SDS011;17847;31.524;74.366;2023-03-01T16:21:14;34.70;;;17.45;;
31224;SDS011;17847;31.524;74.366;2023-03-01T16:24:00;33.90;;;18.27;;
31224;SDS011;17847;31.524;74.366;2023-03-01T16:26:49;41.65;;;21.10;;
31224;SDS011;17847;31.524;74.366;2023-03-01T16:29:31;36.97;;;20.63;;
31224;SDS011;17847;31.524;74.366;2023-03-01T16:32:19;47.22;;;23.15;;
31224;SDS011;17847;31.524;74.366;2023-03-01T16:35:02;45.40;;;21.20;;
31224;SDS011;17847;31.524;74.366;2023-03-01T16:37:51;41.33;;;21.53;;
31224;SDS011;17847;31.524;74.366;2023-03-01T16:40:35;40.67;;;19.35;;
31224;SDS011;17847;31.524;74.366;2023-03-01T16:43:23;34.30;;;17.73;;
31224;SDS011;17847;31.524;74.366;2023-03-01T16:46:24;30.20;;;17.40;;
31224;SDS011;17847;31.524;74.366;2023-03-01T16:49:15;28.95;;;16.00;;
31224;SDS011;17847;31.524;74.366;2023-03-01T16:51:57;31.15;;;17.02;;
31224;SDS011;17847;31.524;74.366;2023-03-01T16:54:47;36.92;;;16.75;;
31224;SDS011;17847;31.524;74.366;2023-03-01T16:57:29;30.67;;;15.68;;
31224;SDS011;17847;31.524;74.366;2023-03-01T17:00:25;30.77;;;15.90;;
31224;SDS011;17847;31.524;74.366;2023-03-01T17:03:01;26.52;;;15.20;;
31224;SDS011;17847;31.524;74.366;2023-03-01T17:05:56;24.48;;;15.57;;
31224;SDS011;17847;31.524;74.366;2023-03-01T17:08:42;25.92;;;17.08;;
31224;SDS011;17847;31.524;74.366;2023-03-01T17:11:32;29.77;;;16.88;;
31224;SDS011;17847;31.524;74.366;2023-03-01T17:14:16;33.80;;;16.73;;
31224;SDS011;17847;31.524;74.366;2023-03-01T17:17:05;37.20;;;15.80;;
31224;SDS011;17847;31.524;74.366;2023-03-01T17:19:46;30.38;;;15.98;;
31224;SDS011;17847;31.524;74.366;2023-03-01T17:22:36;28.80;;;16.50;;
31224;SDS011;17847;31.524;74.366;2023-03-01T17:25:18;41.20;;;18.08;;
31224;SDS011;17847;31.524;74.366;2023-03-01T17:28:08;39.25;;;17.45;;
31224;SDS011;17847;31.524;74.366;2023-03-01T17:30:43;36.08;;;17.73;;
31224;SDS011;17847;31.524;74.366;2023-03-01T17:33:40;34.92;;;18.38;;
31224;SDS011;17847;31.524;74.366;2023-03-01T17:36:24;32.95;;;17.40;;
31224;SDS011;17847;31.524;74.366;2023-03-01T17:39:12;27.53;;;15.10;;
31224;SDS011;17847;31.524;74.366;2023-03-01T17:41:59;24.63;;;14.93;;
31224;SDS011;17847;31.524;74.366;2023-03-01T17:44:48;22.98;;;14.70;;
31224;SDS011;17847;31.524;74.366;2023-03-01T17:47:31;22.38;;;14.20;;
31224;SDS011;17847;31.524;74.366;2023-03-01T17:50:20;27.88;;;15.00;;
31224;SDS011;17847;31.524;74.366;2023-03-01T17:53:03;23.30;;;13.07;;
31224;SDS011;17847;31.524;74.366;2023-03-01T17:55:57;25.67;;;11.48;;
31224;SDS011;17847;31.524;74.366;2023-03-01T17:58:47;19.77;;;11.93;;
31224;SDS011;17847;31.524;74.366;2023-03-01T18:01:30;26.27;;;12.32;;
31224;SDS011;17847;31.524;74.366;2023-03-01T18:04:20;20.98;;;11.57;;
31224;SDS011;17847;31.524;74.366;2023-03-01T18:06:55;23.35;;;13.32;;
31224;SDS011;17847;31.524;74.366;2023-03-01T18:09:51;23.20;;;12.30;;
31224;SDS011;17847;31.524;74.366;2023-03-01T18:12:33;28.80;;;16.80;;
31224;SDS011;17847;31.524;74.366;2023-03-01T18:15:22;43.15;;;25.75;;
31224;SDS011;17847;31.524;74.366;2023-03-01T18:18:04;64.25;;;34.03;;
31224;SDS011;17847;31.524;74.366;2023-03-01T18:20:57;62.20;;;36.90;;
31224;SDS011;17847;31.524;74.366;2023-03-01T18:23:41;55.00;;;33.90;;
31224;SDS011;17847;31.524;74.366;2023-03-01T18:29:14;51.42;;;29.50;;
31224;SDS011;17847;31.524;74.366;2023-03-01T18:32:03;43.00;;;26.75;;
31224;SDS011;17847;31.524;74.366;2023-03-01T18:34:47;49.28;;;25.45;;
31224;SDS011;17847;31.524;74.366;2023-03-01T18:37:37;43.92;;;25.52;;